createdAt,value
2023-01-12T00:01:16.149Z,99622.75
2023-01-12T00:02:49.339Z,99634.06
2023-01-12T00:04:22.539Z,99637.56
2023-01-12T00:06:00.181Z,99620.16
2023-01-12T00:07:33.483Z,99628.88
2023-01-12T00:09:06.790Z,99631.50
2023-01-12T00:10:39.958Z,99621.91
2023-01-12T00:12:13.464Z,99622.75
2023-01-12T00:13:47.471Z,99627.16
2023-01-12T00:15:41.086Z,99621.88
2023-01-12T00:17:17.086Z,99617.53
2023-01-12T00:18:51.137Z,99619.31
2023-01-12T00:20:24.478Z,99615.81
2023-01-12T00:22:02.342Z,99616.66
2023-01-12T00:23:34.483Z,99616.66
2023-01-12T00:25:08.522Z,99618.41
2023-01-12T00:26:40.854Z,99606.22
2023-01-12T00:28:14.200Z,99604.47
2023-01-12T00:29:48.866Z,99614.94
2023-01-12T00:31:20.992Z,99628.06
2023-01-12T00:32:54.342Z,99631.53
2023-01-12T00:34:29.708Z,99639.38
2023-01-12T00:36:03.381Z,99638.53
2023-01-12T00:37:36.517Z,99645.50
2023-01-12T00:39:09.230Z,99635.94
2023-01-12T00:40:42.646Z,99649.88
2023-01-12T00:42:32.926Z,99657.75
2023-01-12T00:44:35.655Z,99660.44
2023-01-12T00:46:10.900Z,99662.16
2023-01-12T00:47:44.363Z,99670.84
2023-01-12T00:49:17.231Z,99679.56
2023-01-12T00:50:50.558Z,99665.59
2023-01-12T00:52:32.002Z,99671.66
2023-01-12T00:54:04.523Z,99677.78
2023-01-12T00:55:37.686Z,99670.78
2023-01-12T00:57:11.251Z,99665.53
2023-01-12T00:58:44.816Z,99665.53
2023-01-12T01:00:18.908Z,99660.28
2023-01-12T01:01:53.463Z,99665.50
2023-01-12T01:03:26.707Z,99663.72
2023-01-12T01:05:00.076Z,99657.66
2023-01-12T01:06:32.216Z,99658.50
2023-01-12T01:08:05.691Z,99654.97
2023-01-12T01:09:38.839Z,99656.75
2023-01-12T01:11:13.656Z,99658.50
2023-01-12T01:12:47.225Z,99663.72
2023-01-12T01:14:19.437Z,99662.81
2023-01-12T01:15:52.635Z,99666.31
2023-01-12T01:17:28.822Z,99659.28
2023-01-12T01:19:03.275Z,99661.91
2023-01-12T01:20:37.571Z,99659.28
2023-01-12T01:22:10.676Z,99652.31
2023-01-12T01:23:44.240Z,99649.63
2023-01-12T01:25:17.482Z,99648.75
2023-01-12T01:26:52.166Z,99646.97
2023-01-12T01:28:24.322Z,99650.44
2023-01-12T01:29:58.006Z,99647.84
2023-01-12T01:31:31.249Z,99653.13
2023-01-12T01:33:04.844Z,99653.16
2023-01-12T01:34:37.952Z,99646.19
2023-01-12T01:36:10.999Z,99654.94
2023-01-12T01:37:44.088Z,99648.84
2023-01-12T01:39:17.233Z,99649.75
2023-01-12T01:40:49.373Z,99641.00
2023-01-12T01:42:29.071Z,99648.00
2023-01-12T01:44:04.261Z,99634.03
2023-01-12T01:45:36.380Z,99636.63
2023-01-12T01:47:20.547Z,99639.28
2023-01-12T01:48:56.082Z,99641.00
2023-01-12T01:50:33.500Z,99637.50
2023-01-12T01:52:12.692Z,99637.47
2023-01-12T01:53:46.666Z,99634.84
2023-01-12T01:55:24.023Z,99640.94
2023-01-12T01:56:58.595Z,99639.19
2023-01-12T01:58:35.822Z,99634.00
2023-01-12T02:00:11.994Z,99636.63
2023-01-12T02:01:45.834Z,99627.06
2023-01-12T02:03:20.172Z,99630.50
2023-01-12T02:04:57.485Z,99635.72
2023-01-12T02:06:31.707Z,99638.34
2023-01-12T02:08:12.451Z,99634.84
2023-01-12T02:09:45.903Z,99639.19
2023-01-12T02:11:33.867Z,99634.00
2023-01-12T02:13:25.092Z,99624.38
2023-01-12T02:15:15.823Z,99613.00
2023-01-12T02:17:04.118Z,99617.38
2023-01-12T02:18:45.483Z,99600.78
2023-01-12T02:20:52.602Z,99606.91
2023-01-12T02:22:49.617Z,99607.75
2023-01-12T02:24:49.191Z,99612.97
2023-01-12T02:27:00.113Z,99615.59
2023-01-12T02:29:03.241Z,99618.22
2023-01-12T02:31:25.407Z,99614.78
2023-01-12T02:33:10.734Z,99620.88
2023-01-12T02:34:58.080Z,99614.78
2023-01-12T02:36:38.830Z,99619.13
2023-01-12T02:38:22.113Z,99612.16
2023-01-12T02:40:00.627Z,99620.84
2023-01-12T02:41:56.910Z,99626.97
2023-01-12T02:43:32.034Z,99627.00
2023-01-12T02:45:13.980Z,99628.75
2023-01-12T02:46:52.697Z,99620.03
2023-01-12T02:48:30.669Z,99621.75
2023-01-12T02:50:08.230Z,99604.34
2023-01-12T02:51:47.231Z,99615.63
2023-01-12T02:53:25.537Z,99620.00
2023-01-12T02:55:00.513Z,99627.88
2023-01-12T02:56:37.641Z,99627.91
2023-01-12T02:58:14.532Z,99613.09
2023-01-12T02:59:50.915Z,99616.59
2023-01-12T03:01:27.031Z,99620.06
2023-01-12T03:03:00.667Z,99620.06
2023-01-12T03:04:34.374Z,99618.31
2023-01-12T03:06:08.931Z,99613.09
2023-01-12T03:07:51.872Z,99613.09
2023-01-12T03:09:29.067Z,99617.44
2023-01-12T03:11:12.048Z,99618.31
2023-01-12T03:12:45.753Z,99624.38
2023-01-12T03:14:19.290Z,99630.53
2023-01-12T03:15:56.679Z,99625.31
2023-01-12T03:17:34.737Z,99623.56
2023-01-12T03:19:12.698Z,99614.81
2023-01-12T03:20:51.216Z,99608.75
2023-01-12T03:22:25.353Z,99614.81
2023-01-12T03:24:04.425Z,99604.34
2023-01-12T03:25:40.633Z,99606.97
2023-01-12T03:27:19.267Z,99610.47
2023-01-12T03:29:00.627Z,99606.13
2023-01-12T03:30:38.727Z,99605.22
2023-01-12T03:32:12.412Z,99607.84
2023-01-12T03:33:45.895Z,99602.59
2023-01-12T03:35:25.722Z,99604.31
2023-01-12T03:37:04.419Z,99599.09
2023-01-12T03:38:45.347Z,99604.25
2023-01-12T03:40:23.069Z,99599.03
2023-01-12T03:42:01.469Z,99606.03
2023-01-12T03:43:40.891Z,99607.78
2023-01-12T03:45:24.929Z,99612.16
2023-01-12T03:47:02.950Z,99605.22
2023-01-12T03:48:40.825Z,99601.72
2023-01-12T03:50:18.449Z,99606.13
2023-01-12T03:51:55.831Z,99605.22
2023-01-12T03:53:30.413Z,99609.56
2023-01-12T03:55:09.380Z,99606.06
2023-01-12T03:56:45.680Z,99599.09
2023-01-12T03:58:20.477Z,99606.06
2023-01-12T03:59:54.949Z,99606.94
2023-01-12T04:01:28.686Z,99596.47
2023-01-12T04:03:10.001Z,99608.66
2023-01-12T04:04:43.627Z,99608.69
2023-01-12T04:06:16.948Z,99607.84
2023-01-12T04:07:52.169Z,99607.84
2023-01-12T04:09:26.686Z,99613.06
2023-01-12T04:11:00.753Z,99608.72
2023-01-12T04:12:32.880Z,99613.06
2023-01-12T04:14:06.174Z,99609.56
2023-01-12T04:15:43.214Z,99607.84
2023-01-12T04:17:16.964Z,99607.03
2023-01-12T04:18:49.817Z,99604.41
2023-01-12T04:20:23.211Z,99601.78
2023-01-12T04:22:13.883Z,99609.59
2023-01-12T04:23:47.742Z,99609.59
2023-01-12T04:25:23.275Z,99611.34
2023-01-12T04:26:55.496Z,99611.31
2023-01-12T04:28:28.871Z,99618.28
2023-01-12T04:30:02.637Z,99610.47
2023-01-12T04:31:35.925Z,99622.66
2023-01-12T04:33:09.499Z,99621.81
2023-01-12T04:34:42.846Z,99618.31
2023-01-12T04:36:18.715Z,99627.06
2023-01-12T04:37:52.642Z,99632.28
2023-01-12T04:39:27.325Z,99619.19
2023-01-12T04:40:59.531Z,99632.28
2023-01-12T04:42:50.462Z,99636.66
2023-01-12T04:44:23.884Z,99618.41
2023-01-12T04:45:57.039Z,99627.09
2023-01-12T04:47:29.831Z,99627.97
2023-01-12T04:49:03.012Z,99632.31
2023-01-12T04:50:36.469Z,99644.56
2023-01-12T04:52:09.750Z,99640.19
2023-01-12T04:53:43.151Z,99641.97
2023-01-12T04:55:16.892Z,99645.47
2023-01-12T04:56:50.076Z,99639.34
2023-01-12T04:58:23.260Z,99644.59
2023-01-12T04:59:56.723Z,99628.91
2023-01-12T05:01:31.408Z,99641.97
2023-01-12T05:03:03.749Z,99647.19
2023-01-12T05:04:36.866Z,99650.66
2023-01-12T05:06:10.919Z,99646.31
2023-01-12T05:08:04.285Z,99638.47
2023-01-12T05:09:54.636Z,99642.78
2023-01-12T05:11:28.760Z,99638.47
2023-01-12T05:13:01.926Z,99648.09
2023-01-12T05:14:35.382Z,99646.31
2023-01-12T05:16:12.928Z,99653.31
2023-01-12T05:17:46.301Z,99655.06
2023-01-12T05:19:19.504Z,99655.06
2023-01-12T05:20:52.938Z,99662.03
2023-01-12T05:22:26.123Z,99669.88
2023-01-12T05:23:59.474Z,99669.03
2023-01-12T05:25:33.690Z,99675.16
2023-01-12T05:27:08.538Z,99676.00
2023-01-12T05:28:42.209Z,99667.28
2023-01-12T05:30:16.129Z,99662.91
2023-01-12T05:31:50.155Z,99669.03
2023-01-12T05:33:23.377Z,99682.13
2023-01-12T05:34:56.456Z,99671.72
2023-01-12T05:36:30.153Z,99669.09
2023-01-12T05:38:03.277Z,99668.22
2023-01-12T05:39:36.495Z,99665.59
2023-01-12T05:41:10.949Z,99666.44
2023-01-12T05:43:02.959Z,99676.06
2023-01-12T05:44:35.067Z,99672.56
2023-01-12T05:46:08.581Z,99680.41
2023-01-12T05:47:41.755Z,99676.94
2023-01-12T05:49:15.230Z,99679.56
2023-01-12T05:50:48.481Z,99682.19
2023-01-12T05:52:21.747Z,99680.44
2023-01-12T05:53:56.143Z,99686.56
2023-01-12T05:55:28.531Z,99678.72
2023-01-12T05:57:01.741Z,99683.09
2023-01-12T05:58:36.557Z,99680.50
2023-01-12T06:00:10.909Z,99682.25
2023-01-12T06:01:45.557Z,99692.72
2023-01-12T06:03:18.713Z,99677.91
2023-01-12T06:04:52.010Z,99679.69
2023-01-12T06:06:26.484Z,99691.84
2023-01-12T06:08:00.714Z,99684.88
2023-01-12T06:09:33.901Z,99697.09
2023-01-12T06:11:07.048Z,99691.88
2023-01-12T06:12:58.011Z,99686.69
2023-01-12T06:14:31.792Z,99692.78
2023-01-12T06:16:09.188Z,99697.13
2023-01-12T06:17:42.464Z,99686.69
2023-01-12T06:19:15.994Z,99686.72
2023-01-12T06:20:49.474Z,99693.69
2023-01-12T06:22:22.723Z,99696.31
2023-01-12T06:23:55.875Z,99691.94
2023-01-12T06:25:30.092Z,99697.16
2023-01-12T06:27:03.495Z,99696.31
2023-01-12T06:28:36.873Z,99688.47
2023-01-12T06:30:13.079Z,99691.06
2023-01-12T06:31:46.188Z,99698.06
2023-01-12T06:33:19.440Z,99697.19
2023-01-12T06:34:52.796Z,99688.50
2023-01-12T06:36:25.990Z,99706.75
2023-01-12T06:37:59.159Z,99703.28
2023-01-12T06:39:32.404Z,99698.91
2023-01-12T06:41:06.662Z,99701.53
2023-01-12T06:42:42.072Z,99700.69
2023-01-12T06:44:15.359Z,99706.75
2023-01-12T06:45:50.279Z,99712.00
2023-01-12T06:47:24.087Z,99711.09
2023-01-12T06:48:58.106Z,99716.31
2023-01-12T06:50:32.561Z,99711.09
2023-01-12T06:52:06.063Z,99702.38
2023-01-12T06:53:39.438Z,99711.09
2023-01-12T06:55:12.656Z,99704.13
2023-01-12T06:56:45.824Z,99721.53
2023-01-12T06:58:19.366Z,99719.81
2023-01-12T06:59:53.034Z,99716.31
2023-01-12T07:01:27.828Z,99717.22
2023-01-12T07:03:00.982Z,99713.72
2023-01-12T07:04:34.287Z,99718.94
2023-01-12T07:06:08.039Z,99719.81
2023-01-12T07:07:41.452Z,99726.75
2023-01-12T07:09:14.659Z,99727.66
2023-01-12T07:10:47.896Z,99725.88
2023-01-12T07:12:21.628Z,99726.75
2023-01-12T07:13:56.155Z,99729.41
2023-01-12T07:15:29.334Z,99730.25
2023-01-12T07:17:03.915Z,99730.25
2023-01-12T07:18:37.287Z,99730.28
2023-01-12T07:20:11.637Z,99742.47
2023-01-12T07:21:45.208Z,99732.88
2023-01-12T07:23:18.568Z,99737.22
2023-01-12T07:24:51.889Z,99738.97
2023-01-12T07:26:25.068Z,99740.69
2023-01-12T07:27:58.463Z,99740.69
2023-01-12T07:29:31.705Z,99744.19
2023-01-12T07:31:06.958Z,99745.91
2023-01-12T07:32:41.599Z,99751.16
2023-01-12T07:34:14.718Z,99746.81
2023-01-12T07:35:48.142Z,99738.97
2023-01-12T07:37:21.457Z,99751.16
2023-01-12T07:38:55.030Z,99747.66
2023-01-12T07:40:27.462Z,99747.66
2023-01-12T07:42:18.590Z,99746.81
2023-01-12T07:43:51.666Z,99750.28
2023-01-12T07:45:24.846Z,99759.00
2023-01-12T07:46:59.697Z,99745.94
2023-01-12T07:48:35.187Z,99756.38
2023-01-12T07:50:08.949Z,99753.75
2023-01-12T07:51:42.115Z,99759.00
2023-01-12T07:53:15.759Z,99762.50
2023-01-12T07:54:49.072Z,99759.88
2023-01-12T07:56:22.409Z,99758.13
2023-01-12T07:57:56.575Z,99761.59
2023-01-12T07:59:29.749Z,99762.50
2023-01-12T08:01:03.416Z,99757.25
2023-01-12T08:02:37.273Z,99766.84
2023-01-12T08:04:11.786Z,99770.34
2023-01-12T08:05:44.919Z,99772.94
2023-01-12T08:07:18.476Z,99766.84
2023-01-12T08:08:54.486Z,99762.50
2023-01-12T08:10:27.826Z,99766.84
2023-01-12T08:12:01.017Z,99773.78
2023-01-12T08:13:34.976Z,99768.59
2023-01-12T08:15:09.884Z,99779.88
2023-01-12T08:16:49.774Z,99784.25
2023-01-12T08:18:27.060Z,99790.34
2023-01-12T08:20:06.903Z,99786.00
2023-01-12T08:21:46.146Z,99787.72
2023-01-12T08:23:24.462Z,99780.75
2023-01-12T08:25:01.824Z,99791.19
2023-01-12T08:26:39.343Z,99792.91
2023-01-12T08:28:18.586Z,99794.66
2023-01-12T08:29:54.405Z,99790.34
2023-01-12T08:31:28.250Z,99799.91
2023-01-12T08:33:02.741Z,99782.50
2023-01-12T08:34:40.623Z,99790.31
2023-01-12T08:36:17.539Z,99787.72
2023-01-12T08:37:50.877Z,99786.84
2023-01-12T08:39:24.275Z,99793.81
2023-01-12T08:41:14.728Z,99791.19
2023-01-12T08:42:47.925Z,99791.16
2023-01-12T08:44:21.189Z,99787.69
2023-01-12T08:45:54.519Z,99789.44
2023-01-12T08:47:30.767Z,99785.94
2023-01-12T08:49:05.769Z,99794.66
2023-01-12T08:50:38.942Z,99781.59
2023-01-12T08:52:13.633Z,99787.69
2023-01-12T08:53:47.107Z,99779.84
2023-01-12T08:55:20.262Z,99781.59
2023-01-12T08:56:54.921Z,99784.19
2023-01-12T08:58:28.291Z,99791.19
2023-01-12T09:00:01.538Z,99791.19
2023-01-12T09:01:41.740Z,99793.78
2023-01-12T09:03:15.381Z,99795.53
2023-01-12T09:04:48.732Z,99798.16
2023-01-12T09:06:25.056Z,99798.16
2023-01-12T09:07:59.600Z,99792.91
2023-01-12T09:09:32.938Z,99788.59
2023-01-12T09:11:06.967Z,99792.91
2023-01-12T09:12:40.222Z,99790.31
2023-01-12T09:14:15.004Z,99789.44
2023-01-12T09:16:01.094Z,99799.88
2023-01-12T09:17:41.486Z,99786.84
2023-01-12T09:19:15.617Z,99794.66
2023-01-12T09:20:48.739Z,99783.38
2023-01-12T09:22:21.856Z,99792.97
2023-01-12T09:23:56.650Z,99777.28
2023-01-12T09:25:29.952Z,99777.28
2023-01-12T09:27:03.091Z,99789.47
2023-01-12T09:28:36.505Z,99784.22
2023-01-12T09:30:11.414Z,99772.06
2023-01-12T09:31:46.192Z,99770.31
2023-01-12T09:33:19.385Z,99772.06
2023-01-12T09:34:54.297Z,99775.56
2023-01-12T09:36:29.622Z,99770.31
2023-01-12T09:38:04.308Z,99770.31
2023-01-12T09:39:38.776Z,99774.66
2023-01-12T09:41:13.943Z,99765.09
2023-01-12T09:43:08.435Z,99769.44
2023-01-12T09:45:02.034Z,99772.94
2023-01-12T09:46:56.462Z,99765.94
2023-01-12T09:48:30.336Z,99765.09
2023-01-12T09:50:09.700Z,99770.34
2023-01-12T09:51:52.497Z,99777.28
2023-01-12T09:53:33.764Z,99764.22
2023-01-12T09:55:15.351Z,99770.31
2023-01-12T09:56:53.638Z,99772.91
2023-01-12T09:58:37.827Z,99772.91
2023-01-12T10:00:15.659Z,99766.84
2023-01-12T10:01:49.622Z,99758.97
2023-01-12T10:03:30.099Z,99759.84
2023-01-12T10:05:08.287Z,99758.97
2023-01-12T10:06:42.551Z,99754.63
2023-01-12T10:08:19.852Z,99749.41
2023-01-12T10:09:53.179Z,99760.72
2023-01-12T10:11:35.930Z,99754.63
2023-01-12T10:13:14.255Z,99756.38
2023-01-12T10:15:04.706Z,99747.69
2023-01-12T10:16:48.394Z,99754.63
2023-01-12T10:18:27.069Z,99757.25
2023-01-12T10:20:11.019Z,99753.75
2023-01-12T10:21:44.812Z,99758.09
2023-01-12T10:23:24.673Z,99751.16
2023-01-12T10:24:57.983Z,99738.09
2023-01-12T10:26:41.941Z,99740.72
2023-01-12T14:49:32.701Z,99726.59
2023-01-12T14:51:19.631Z,99724.84
2023-01-12T14:52:53.675Z,99720.47
2023-01-12T14:54:29.258Z,99726.59
2023-01-12T14:56:14.978Z,99724.88
2023-01-12T14:57:52.339Z,99727.47
2023-01-12T14:59:29.387Z,99732.72
2023-01-12T15:01:02.657Z,99731.81
2023-01-12T15:02:39.941Z,99737.88
2023-01-12T15:04:19.152Z,99730.03
2023-01-12T15:05:55.323Z,99744.00
2023-01-12T15:07:33.474Z,99744.84
2023-01-12T15:09:11.040Z,99738.72
2023-01-12T15:10:46.598Z,99737.88
2023-01-12T15:12:43.535Z,99740.50
2023-01-12T15:14:25.235Z,99743.97
2023-01-12T15:16:16.244Z,99733.53
2023-01-12T15:18:08.357Z,99747.47
2023-01-12T15:19:59.407Z,99748.34
2023-01-12T15:22:03.686Z,99754.44
2023-01-12T15:23:59.376Z,99750.06
2023-01-12T15:25:38.477Z,99754.47
2023-01-12T15:27:13.739Z,99759.66
2023-01-12T15:28:47.395Z,99754.41
2023-01-12T15:30:23.899Z,99761.44
2023-01-12T15:32:00.199Z,99762.28
2023-01-12T15:33:37.384Z,99768.41
2023-01-12T15:35:17.860Z,99766.66
2023-01-12T15:36:52.511Z,99772.78
2023-01-12T15:38:29.473Z,99771.91
2023-01-12T15:40:02.708Z,99768.41
2023-01-12T15:41:55.065Z,99765.78
2023-01-12T15:43:28.584Z,99761.44
2023-01-12T15:45:01.965Z,99747.47
2023-01-12T15:46:35.228Z,99766.66
2023-01-12T15:48:08.723Z,99752.69
2023-01-12T15:49:43.356Z,99758.81
2023-01-12T15:51:17.404Z,99764.03
2023-01-12T15:52:52.827Z,99759.66
2023-01-12T15:54:26.159Z,99757.03
2023-01-12T15:55:59.602Z,99766.59
2023-01-12T15:57:33.458Z,99763.09
2023-01-12T15:59:06.354Z,99763.09
2023-01-12T16:00:40.514Z,99763.09
2023-01-12T16:02:25.913Z,99754.41
2023-01-12T16:04:35.559Z,99757.91
2023-01-12T16:05:53.413Z,99757.88
2023-01-12T16:07:26.987Z,99768.31
2023-01-12T16:09:22.629Z,99770.94
2023-01-12T16:11:13.357Z,99768.31
2023-01-12T16:12:48.027Z,99770.03
2023-01-12T16:14:21.485Z,99766.56
2023-01-12T16:15:55.916Z,99764.81
2023-01-12T16:17:29.092Z,99770.06
2023-01-12T16:19:06.012Z,99776.16
2023-01-12T16:20:39.125Z,99767.44
2023-01-12T16:22:18.150Z,99773.56
2023-01-12T16:23:51.369Z,99775.28
2023-01-12T16:25:26.845Z,99764.88
2023-01-12T16:27:00.090Z,99766.63
2023-01-12T16:28:33.657Z,99770.13
2023-01-12T16:30:10.550Z,99771.84
2023-01-12T16:31:44.391Z,99770.13
2023-01-12T16:33:18.443Z,99778.84
2023-01-12T16:34:52.162Z,99771.84
2023-01-12T16:36:25.497Z,99781.47
2023-01-12T16:37:59.368Z,99776.25
2023-01-12T16:39:32.828Z,99776.25
2023-01-12T16:41:11.652Z,99775.41
2023-01-12T16:42:45.433Z,99788.50
2023-01-12T16:44:18.864Z,99787.59
2023-01-12T16:45:52.977Z,99783.25
2023-01-12T16:47:26.583Z,99784.13
2023-01-12T16:49:00.208Z,99775.41
2023-01-12T16:50:33.764Z,99785.03
2023-01-12T16:52:08.685Z,99785.91
2023-01-12T16:53:43.331Z,99784.16
2023-01-12T16:55:16.879Z,99785.00
2023-01-12T16:56:51.578Z,99786.72
2023-01-12T16:58:25.249Z,99794.56
2023-01-12T17:00:19.491Z,99792.78
2023-01-12T17:01:53.433Z,99793.66
2023-01-12T17:03:27.104Z,99793.66
2023-01-12T17:05:00.404Z,99791.03
2023-01-12T17:06:34.455Z,99802.41
2023-01-12T17:08:10.244Z,99787.56
2023-01-12T17:09:44.309Z,99780.59
2023-01-12T17:11:19.899Z,99787.56
2023-01-12T17:12:59.542Z,99784.09
2023-01-12T17:14:35.316Z,99793.66
2023-01-12T17:16:09.773Z,99782.34
2023-01-12T17:17:43.396Z,99802.38
2023-01-12T17:19:17.436Z,99798.06
2023-01-12T17:20:51.023Z,99802.41
2023-01-12T17:22:24.422Z,99780.63
2023-01-12T17:23:57.804Z,99803.31
2023-01-12T17:25:31.818Z,99801.53
2023-01-12T17:27:05.408Z,99799.78
2023-01-12T17:28:41.039Z,99802.41
2023-01-12T17:30:15.131Z,99798.06
2023-01-12T17:31:49.649Z,99796.34
2023-01-12T17:33:23.363Z,99798.06
2023-01-12T17:34:57.138Z,99796.34
2023-01-12T17:36:31.106Z,99792.84
2023-01-12T17:38:04.610Z,99792.84
2023-01-12T17:39:40.387Z,99804.19
2023-01-12T17:41:36.189Z,99807.69
2023-01-12T17:43:15.158Z,99800.69
2023-01-12T17:44:50.801Z,99805.06
2023-01-12T17:46:24.600Z,99801.56
2023-01-12T17:47:58.668Z,99798.97
2023-01-12T17:49:32.497Z,99794.63
2023-01-12T17:51:12.727Z,99805.91
2023-01-12T17:52:46.126Z,99803.34
2023-01-12T17:54:20.287Z,99810.31
2023-01-12T17:55:53.838Z,99804.22
2023-01-12T17:57:27.259Z,99801.63
2023-01-12T17:59:01.607Z,99796.38
2023-01-12T18:00:36.349Z,99806.84
2023-01-12T18:02:12.360Z,99801.63
2023-01-12T18:03:46.327Z,99803.34
2023-01-12T18:05:19.542Z,99805.97
2023-01-12T18:06:53.271Z,99805.97
2023-01-12T18:08:26.934Z,99806.84
2023-01-12T18:10:00.635Z,99810.34
2023-01-12T18:11:37.159Z,99809.50
2023-01-12T18:13:13.841Z,99817.31
2023-01-12T18:14:47.547Z,99813.84
2023-01-12T18:16:23.630Z,99809.47
2023-01-12T18:17:57.201Z,99810.34
2023-01-12T18:19:30.792Z,99812.06
2023-01-12T18:21:05.980Z,99812.06
2023-01-12T18:22:40.341Z,99803.38
2023-01-12T18:24:14.432Z,99806.84
2023-01-12T18:25:48.505Z,99806.00
2023-01-12T18:27:22.820Z,99806.00
2023-01-12T18:28:58.646Z,99809.50
2023-01-12T18:30:32.216Z,99808.63
2023-01-12T18:32:08.095Z,99812.09
2023-01-12T18:33:42.815Z,99812.13
2023-01-12T18:35:17.584Z,99805.13
2023-01-12T18:36:51.211Z,99808.63
2023-01-12T18:38:25.425Z,99806.88
2023-01-12T18:39:59.517Z,99812.13
2023-01-12T18:41:51.072Z,99812.13
2023-01-12T18:43:24.092Z,99811.22
2023-01-12T18:44:59.811Z,99815.56
2023-01-12T18:46:47.892Z,99812.97
2023-01-12T18:48:24.482Z,99812.06
2023-01-12T18:49:59.248Z,99819.06
2023-01-12T18:51:53.118Z,99826.91
2023-01-12T18:53:33.142Z,99811.22
2023-01-12T18:55:08.676Z,99814.69
2023-01-12T18:56:43.307Z,99822.56
2023-01-12T18:58:17.122Z,99822.53
2023-01-12T18:59:53.881Z,99826.03
2023-01-12T19:01:28.043Z,99817.31
2023-01-12T19:03:01.608Z,99830.38
2023-01-12T19:05:00.059Z,99823.44
2023-01-12T19:06:43.704Z,99826.03
2023-01-12T19:08:34.726Z,99834.78
2023-01-12T19:10:09.954Z,99832.16
2023-01-12T19:11:46.563Z,99831.28
2023-01-12T19:13:37.151Z,99826.03
2023-01-12T19:15:29.634Z,99833.00
2023-01-12T19:17:20.759Z,99831.25
2023-01-12T19:18:54.642Z,99829.53
2023-01-12T19:20:31.198Z,99829.53
2023-01-12T19:22:22.346Z,99835.66
2023-01-12T19:24:13.334Z,99832.16
2023-01-12T19:26:04.968Z,99835.63
2023-01-12T19:27:56.193Z,99824.31
2023-01-12T19:29:30.045Z,99833.00
2023-01-12T19:31:05.453Z,99822.56
2023-01-12T19:32:39.277Z,99830.38
2023-01-12T19:34:13.221Z,99833.88
2023-01-12T19:35:49.110Z,99833.03
2023-01-12T19:37:23.387Z,99824.31
2023-01-12T19:38:59.856Z,99840.00
2023-01-12T19:40:36.136Z,99840.00
2023-01-12T19:42:27.400Z,99841.72
2023-01-12T19:44:02.188Z,99846.09
2023-01-12T19:45:39.501Z,99840.00
2023-01-12T19:47:16.580Z,99845.19
2023-01-12T19:48:50.111Z,99849.59
2023-01-12T19:50:23.796Z,99844.34
2023-01-12T19:51:58.460Z,99843.47
2023-01-12T19:53:31.770Z,99847.84
2023-01-12T19:55:08.501Z,99846.06
2023-01-12T19:56:41.810Z,99848.69
2023-01-12T19:58:15.669Z,99842.63
2023-01-12T19:59:49.053Z,99844.34
2023-01-12T20:01:23.370Z,99846.97
2023-01-12T20:02:57.135Z,99845.22
2023-01-12T20:04:31.102Z,99857.41
2023-01-12T20:06:07.844Z,99856.53
2023-01-12T20:07:42.720Z,99846.97
2023-01-12T20:09:16.103Z,99848.69
2023-01-12T20:10:55.288Z,99857.44
2023-01-12T20:12:28.540Z,99859.16
2023-01-12T20:14:02.094Z,99863.50
2023-01-12T20:15:36.008Z,99868.75
2023-01-12T20:17:10.044Z,99859.13
2023-01-12T20:18:43.964Z,99860.00
2023-01-12T20:20:18.162Z,99865.25
2023-01-12T20:21:51.586Z,99857.41
2023-01-12T20:23:26.389Z,99864.41
2023-01-12T20:25:01.775Z,99860.00
2023-01-12T20:26:35.315Z,99858.28
2023-01-12T20:28:10.296Z,99859.19
2023-01-12T20:29:43.900Z,99859.19
2023-01-12T20:31:20.366Z,99865.28
2023-01-12T20:32:53.715Z,99864.41
2023-01-12T20:34:27.340Z,99872.25
2023-01-12T20:36:01.411Z,99860.06
2023-01-12T20:37:35.731Z,99859.16
2023-01-12T20:39:11.111Z,99860.94
2023-01-12T20:40:45.693Z,99859.16
2023-01-12T20:42:18.899Z,99862.66
2023-01-12T20:43:52.089Z,99851.34
2023-01-12T20:45:25.370Z,99848.72
2023-01-12T20:46:58.934Z,99857.44
2023-01-12T20:48:32.399Z,99849.59
2023-01-12T20:50:08.129Z,99856.56
2023-01-12T20:51:41.389Z,99860.94
2023-01-12T20:53:16.403Z,99853.09
2023-01-12T20:54:51.501Z,99842.63
2023-01-12T20:56:26.022Z,99853.94
2023-01-12T20:57:59.222Z,99857.44
2023-01-12T20:59:32.672Z,99866.16
2023-01-12T21:01:10.669Z,99859.16
2023-01-12T21:02:43.937Z,99859.16
2023-01-12T21:04:19.504Z,99852.22
2023-01-12T21:05:52.971Z,99857.44
2023-01-12T21:07:26.126Z,99861.78
2023-01-12T21:08:59.468Z,99853.94
2023-01-12T21:10:34.097Z,99862.66
2023-01-12T21:12:08.418Z,99868.75
2023-01-12T21:13:41.723Z,99863.53
2023-01-12T21:15:14.917Z,99867.91
2023-01-12T21:16:48.403Z,99860.94
2023-01-12T21:18:21.924Z,99858.31
2023-01-12T21:19:55.175Z,99854.81
2023-01-12T21:21:28.532Z,99846.13
2023-01-12T21:23:02.245Z,99855.69
2023-01-12T21:24:35.667Z,99848.72
2023-01-12T21:26:11.311Z,99858.28
2023-01-12T21:27:44.459Z,99849.56
2023-01-12T21:29:18.079Z,99855.69
2023-01-12T21:30:53.034Z,99854.81
2023-01-12T21:32:27.221Z,99854.81
2023-01-12T21:34:00.306Z,99855.69
2023-01-12T21:35:33.851Z,99856.53
2023-01-12T21:37:07.760Z,99854.81
2023-01-12T21:38:41.360Z,99854.81
2023-01-12T21:40:16.739Z,99857.44
2023-01-12T21:42:09.369Z,99853.06
2023-01-12T21:43:42.598Z,99852.19
2023-01-12T21:45:14.925Z,99856.53
2023-01-12T21:46:48.987Z,99855.66
2023-01-12T21:48:24.565Z,99858.28
2023-01-12T21:49:57.722Z,99854.81
2023-01-12T21:51:30.927Z,99860.00
2023-01-12T21:53:07.485Z,99854.81
2023-01-12T21:54:41.441Z,99849.59
2023-01-12T21:56:15.035Z,99850.47
2023-01-12T21:57:49.594Z,99847.84
2023-01-12T21:59:22.726Z,99849.56
2023-01-12T22:00:57.261Z,99856.56
2023-01-12T22:02:31.320Z,99855.69
2023-01-12T22:04:06.438Z,99847.84
2023-01-12T22:05:39.662Z,99849.59
2023-01-12T22:07:13.226Z,99849.59
2023-01-12T22:08:46.347Z,99846.97
2023-01-12T22:10:19.458Z,99847.84
2023-01-12T22:11:52.564Z,99850.44
2023-01-12T22:13:27.526Z,99842.63
2023-01-12T22:15:00.643Z,99838.25
2023-01-12T22:16:33.946Z,99844.34
2023-01-12T22:18:07.746Z,99843.50
2023-01-12T22:19:41.505Z,99841.75
2023-01-12T22:21:14.766Z,99837.41
2023-01-12T22:22:47.004Z,99830.41
2023-01-12T22:24:20.159Z,99832.16
2023-01-12T22:25:53.668Z,99836.50
2023-01-12T22:27:26.957Z,99834.78
2023-01-12T22:29:01.514Z,99836.50
2023-01-12T22:30:34.620Z,99838.22
2023-01-12T22:32:09.683Z,99838.22
2023-01-12T22:33:46.091Z,99822.56
2023-01-12T22:35:19.302Z,99830.38
2023-01-12T22:36:52.395Z,99826.03
2023-01-12T22:38:26.027Z,99825.19
2023-01-12T22:39:59.109Z,99827.81
2023-01-12T22:41:32.324Z,99819.97
2023-01-12T22:43:22.906Z,99820.81
2023-01-12T22:44:58.560Z,99810.34
2023-01-12T22:46:31.897Z,99832.16
2023-01-12T22:48:05.434Z,99812.13
2023-01-12T22:49:38.527Z,99827.81
2023-01-12T22:51:12.342Z,99813.84
2023-01-12T22:52:45.691Z,99817.34
2023-01-12T22:54:19.191Z,99819.94
2023-01-12T22:55:51.967Z,99819.94
2023-01-12T22:57:25.460Z,99810.38
2023-01-12T22:58:58.796Z,99812.09
2023-01-12T23:00:33.535Z,99813.84
2023-01-12T23:02:26.865Z,99813.84
2023-01-12T23:04:00.245Z,99813.00
2023-01-12T23:05:36.003Z,99809.47
2023-01-12T23:07:09.345Z,99809.50
2023-01-12T23:08:44.732Z,99821.72
2023-01-12T23:10:17.808Z,99806.03
2023-01-12T23:11:50.879Z,99811.25
2023-01-12T23:13:24.154Z,99818.22